createdAt,value
2023-11-07T00:00:20.985Z,79.22
2023-11-07T00:00:53.532Z,78.71
2023-11-07T00:01:28.097Z,78.04
2023-11-07T00:02:00.777Z,78.18
2023-11-07T00:02:33.744Z,78.49
2023-11-07T00:03:06.384Z,78.60
2023-11-07T00:03:39.053Z,78.42
2023-11-07T00:04:12.042Z,78.35
2023-11-07T00:04:44.603Z,78.37
2023-11-07T00:05:17.164Z,78.90
2023-11-07T00:05:49.849Z,79.35
2023-11-07T00:06:22.541Z,79.13
2023-11-07T00:06:55.141Z,79.09
2023-11-07T00:07:27.629Z,78.25
2023-11-07T00:08:00.452Z,77.31
2023-11-07T00:08:32.944Z,76.41
2023-11-07T00:09:05.516Z,76.55
2023-11-07T00:09:38.058Z,77.28
2023-11-07T00:10:10.856Z,77.57
2023-11-07T00:10:43.549Z,78.10
2023-11-07T00:11:16.049Z,78.35
2023-11-07T00:11:48.626Z,77.10
2023-11-07T00:12:21.355Z,76.52
2023-11-07T00:12:53.838Z,76.84
2023-11-07T00:13:26.369Z,76.70
2023-11-07T00:13:58.903Z,76.60
2023-11-07T00:14:31.728Z,76.20
2023-11-07T00:15:04.700Z,76.44
2023-11-07T00:15:37.273Z,76.55
2023-11-07T00:16:11.842Z,76.72
2023-11-07T00:16:44.380Z,76.11
2023-11-07T00:17:16.958Z,76.25
2023-11-07T00:17:51.623Z,76.29
2023-11-07T00:18:24.374Z,76.35
2023-11-07T00:18:57.371Z,77.03
2023-11-07T00:19:29.927Z,77.06
2023-11-07T00:20:04.341Z,77.13
2023-11-07T00:20:38.011Z,77.34
2023-11-07T00:21:10.996Z,78.49
2023-11-07T00:21:44.491Z,78.30
2023-11-07T00:22:17.004Z,77.45
2023-11-07T00:22:49.550Z,76.99
2023-11-07T00:23:22.510Z,77.30
2023-11-07T00:23:55.089Z,77.27
2023-11-07T00:24:27.689Z,77.50
2023-11-07T00:25:00.233Z,78.13
2023-11-07T00:25:33.070Z,77.22
2023-11-07T00:26:05.912Z,76.94
2023-11-07T00:26:38.425Z,77.04
2023-11-07T00:27:11.242Z,77.28
2023-11-07T00:27:43.804Z,78.37
2023-11-07T00:28:16.362Z,77.34
2023-11-07T00:28:49.597Z,79.40
2023-11-07T00:29:24.177Z,78.74
2023-11-07T00:29:56.720Z,77.22
2023-11-07T00:30:29.210Z,77.24
2023-11-07T00:31:01.703Z,77.28
2023-11-07T00:31:34.667Z,77.06
2023-11-07T00:32:07.492Z,78.15
2023-11-07T00:32:41.109Z,78.39
2023-11-07T00:33:13.791Z,77.43
2023-11-07T00:33:46.531Z,78.34
2023-11-07T00:34:19.630Z,78.57
2023-11-07T00:34:52.187Z,77.64
2023-11-07T00:35:24.775Z,77.01
2023-11-07T00:35:57.448Z,77.03
2023-11-07T00:36:29.976Z,76.92
2023-11-07T00:37:02.484Z,76.55
2023-11-07T00:37:35.293Z,76.43
2023-11-07T00:38:07.925Z,76.97
2023-11-07T00:38:40.738Z,77.33
2023-11-07T00:39:13.319Z,77.52
2023-11-07T00:39:45.820Z,77.83
2023-11-07T00:40:18.370Z,78.39
2023-11-07T00:40:50.889Z,78.55
2023-11-07T00:41:24.777Z,78.89
2023-11-07T00:41:57.901Z,78.78
2023-11-07T00:42:30.458Z,78.57
2023-11-07T00:43:03.916Z,78.39
2023-11-07T00:43:36.413Z,78.21
2023-11-07T00:44:08.927Z,79.18
2023-11-07T00:44:41.563Z,80.27
2023-11-07T00:45:14.111Z,81.02
2023-11-07T00:45:46.635Z,82.29
2023-11-07T00:46:19.841Z,82.54
2023-11-07T00:46:52.370Z,82.28
2023-11-07T00:47:24.880Z,81.79
2023-11-07T00:47:58.182Z,81.75
2023-11-07T00:48:30.971Z,82.07
2023-11-07T00:49:03.804Z,81.93
2023-11-07T00:49:36.395Z,81.79
2023-11-07T00:50:11.835Z,81.99
2023-11-07T00:50:44.929Z,82.35
2023-11-07T00:51:17.491Z,82.15
2023-11-07T00:51:50.006Z,82.10
2023-11-07T00:52:22.912Z,82.06
2023-11-07T00:52:55.401Z,82.48
2023-11-07T00:53:27.947Z,82.57
2023-11-07T00:54:00.588Z,83.04
2023-11-07T00:54:33.101Z,83.04
2023-11-07T00:55:08.605Z,83.39
2023-11-07T00:55:41.118Z,83.89
2023-11-07T00:56:13.637Z,83.86
2023-11-07T00:56:46.228Z,83.84
2023-11-07T00:57:18.763Z,83.39
2023-11-07T00:57:51.317Z,83.36
2023-11-07T00:58:23.939Z,82.75
2023-11-07T00:58:56.432Z,82.11
2023-11-07T00:59:28.920Z,81.33
2023-11-07T01:00:01.850Z,82.17
2023-11-07T01:00:37.084Z,81.49
2023-11-07T01:01:10.190Z,81.34
2023-11-07T01:01:42.707Z,81.17
2023-11-07T01:02:15.201Z,81.20
2023-11-07T01:02:47.872Z,80.40
2023-11-07T01:03:20.485Z,81.64
2023-11-07T01:03:53.282Z,81.67
2023-11-07T01:04:25.923Z,82.52
2023-11-07T01:04:58.512Z,82.77
2023-11-07T01:05:31.327Z,82.43
2023-11-07T01:06:04.514Z,83.73
2023-11-07T01:06:37.173Z,83.88
2023-11-07T01:07:10.092Z,84.15
2023-11-07T01:07:42.626Z,84.80
2023-11-07T01:08:15.619Z,84.08
2023-11-07T01:08:48.195Z,84.41
2023-11-07T01:09:20.736Z,84.28
2023-11-07T01:09:53.227Z,84.48
2023-11-07T01:10:25.751Z,84.62
2023-11-07T01:10:58.246Z,84.65
2023-11-07T01:11:31.065Z,84.30
2023-11-07T01:12:04.447Z,84.63
2023-11-07T01:12:36.948Z,84.77
2023-11-07T01:13:09.423Z,84.74
2023-11-07T01:13:41.909Z,84.03
2023-11-07T01:14:15.116Z,83.86
2023-11-07T01:14:47.658Z,84.62
2023-11-07T01:15:20.796Z,83.68
2023-11-07T01:15:53.634Z,82.64
2023-11-07T01:16:26.567Z,82.65
2023-11-07T01:16:59.303Z,81.51
2023-11-07T01:17:32.040Z,81.44
2023-11-07T01:18:07.597Z,81.24
2023-11-07T01:18:40.541Z,80.84
2023-11-07T01:19:13.200Z,82.20
2023-11-07T01:19:45.942Z,82.82
2023-11-07T01:20:18.432Z,82.73
2023-11-07T01:20:51.042Z,82.65
2023-11-07T01:21:23.536Z,82.32
2023-11-07T01:21:56.057Z,82.63
2023-11-07T01:22:29.079Z,82.39
2023-11-07T01:23:01.970Z,82.57
2023-11-07T01:23:34.552Z,82.37
2023-11-07T01:24:48.175Z,82.28
2023-11-07T01:25:20.754Z,82.21
2023-11-07T01:25:53.269Z,82.66
2023-11-07T01:26:25.855Z,82.87
2023-11-07T01:26:59.101Z,82.36
2023-11-07T01:27:32.698Z,82.27
2023-11-07T01:28:05.390Z,82.27
2023-11-07T01:28:37.915Z,82.39
2023-11-07T01:29:10.460Z,82.88
2023-11-07T01:29:43.022Z,82.77
2023-11-07T01:30:15.692Z,83.92
2023-11-07T01:30:51.000Z,84.79
2023-11-07T01:31:23.612Z,84.92
2023-11-07T01:31:56.649Z,83.60
2023-11-07T01:32:29.746Z,83.46
2023-11-07T01:33:02.372Z,84.41
2023-11-07T01:33:36.398Z,85.05
2023-11-07T01:34:09.944Z,85.49
2023-11-07T01:34:42.599Z,84.82
2023-11-07T01:35:15.105Z,85.60
2023-11-07T01:35:47.665Z,86.12
2023-11-07T01:36:20.193Z,86.27
2023-11-07T01:36:52.728Z,85.09
2023-11-07T01:37:25.232Z,83.44
2023-11-07T01:37:57.773Z,83.25
2023-11-07T01:38:30.461Z,84.30
2023-11-07T01:39:04.077Z,85.24
2023-11-07T01:39:36.612Z,84.84
2023-11-07T01:40:13.667Z,84.64
2023-11-07T01:40:46.181Z,84.84
2023-11-07T01:41:18.780Z,84.49
2023-11-07T01:41:51.484Z,82.40
2023-11-07T01:42:24.017Z,80.90
2023-11-07T01:42:56.900Z,80.77
2023-11-07T01:43:29.921Z,80.96
2023-11-07T01:44:02.404Z,81.78
2023-11-07T01:44:35.095Z,81.59
2023-11-07T01:45:08.416Z,81.80
2023-11-07T01:45:42.134Z,81.20
2023-11-07T01:46:15.549Z,82.36
2023-11-07T01:46:48.051Z,83.78
2023-11-07T01:47:24.509Z,83.08
2023-11-07T01:47:57.165Z,82.29
2023-11-07T01:48:30.174Z,83.29
2023-11-07T01:49:02.957Z,81.54
2023-11-07T01:49:35.522Z,81.95
2023-11-07T01:50:11.734Z,82.50
2023-11-07T01:50:44.278Z,83.20
2023-11-07T01:51:16.923Z,84.29
2023-11-07T01:51:50.664Z,84.40
2023-11-07T01:52:23.518Z,84.43
2023-11-07T01:52:56.964Z,84.61
2023-11-07T01:53:30.704Z,84.61
2023-11-07T01:54:05.184Z,84.68
2023-11-07T01:54:38.954Z,84.70
2023-11-07T01:55:17.426Z,84.09
2023-11-07T01:55:50.015Z,84.53
2023-11-07T01:56:24.638Z,82.75
2023-11-07T01:56:57.305Z,82.63
2023-11-07T01:57:29.862Z,83.84
2023-11-07T01:58:03.795Z,83.88
2023-11-07T01:58:37.029Z,84.18
2023-11-07T01:59:09.603Z,84.43
2023-11-07T01:59:42.784Z,82.41
2023-11-07T02:00:16.991Z,81.99
2023-11-07T02:00:51.135Z,81.55
2023-11-07T02:01:25.818Z,80.83
2023-11-07T02:02:01.550Z,80.74
2023-11-07T02:02:34.405Z,81.91
2023-11-07T02:03:08.205Z,83.20
2023-11-07T02:03:40.941Z,81.51
2023-11-07T02:04:14.255Z,81.83
2023-11-07T02:04:48.463Z,82.97
2023-11-07T02:05:21.336Z,83.09
2023-11-07T02:05:53.914Z,83.45
2023-11-07T02:06:26.749Z,83.51
2023-11-07T02:06:59.284Z,83.60
2023-11-07T02:07:32.162Z,83.45
2023-11-07T02:08:06.743Z,83.80
2023-11-07T02:08:39.252Z,83.08
2023-11-07T02:09:12.312Z,83.32
2023-11-07T02:09:45.072Z,83.22
2023-11-07T02:10:18.664Z,83.32
2023-11-07T02:10:51.242Z,82.96
2023-11-07T02:11:25.859Z,83.47
2023-11-07T02:11:58.446Z,83.86
2023-11-07T02:12:30.985Z,83.30
2023-11-07T02:13:03.527Z,82.62
2023-11-07T02:13:36.040Z,82.26
2023-11-07T02:14:10.320Z,82.27
2023-11-07T02:14:43.031Z,81.16
2023-11-07T02:15:28.311Z,80.37
2023-11-07T02:16:00.891Z,80.91
2023-11-07T02:16:33.395Z,82.27
2023-11-07T02:17:06.040Z,82.93
2023-11-07T02:17:38.632Z,82.94
2023-11-07T02:18:11.450Z,82.75
2023-11-07T02:18:44.270Z,81.98
2023-11-07T02:19:16.889Z,81.48
2023-11-07T02:19:49.416Z,82.20
2023-11-07T02:20:22.189Z,82.07
2023-11-07T02:20:54.795Z,80.88
2023-11-07T02:21:30.035Z,80.67
2023-11-07T02:22:02.685Z,80.73
2023-11-07T02:22:35.433Z,81.55
2023-11-07T02:23:18.532Z,82.36
2023-11-07T02:23:51.037Z,81.03
2023-11-07T02:24:23.632Z,80.27
2023-11-07T02:24:56.190Z,80.94
2023-11-07T02:25:28.685Z,81.30
2023-11-07T02:26:01.257Z,81.59
2023-11-07T02:26:33.914Z,80.93
2023-11-07T02:27:07.085Z,80.06
2023-11-07T02:27:39.673Z,80.32
2023-11-07T02:28:12.333Z,79.92
2023-11-07T02:28:47.690Z,78.57
2023-11-07T02:29:20.223Z,77.39
2023-11-07T02:29:52.795Z,76.99
2023-11-07T02:30:26.655Z,76.92
2023-11-07T02:30:59.270Z,76.97
2023-11-07T02:31:31.790Z,77.04
2023-11-07T02:32:04.615Z,77.04
2023-11-07T02:32:37.238Z,77.70
2023-11-07T02:33:09.914Z,78.40
2023-11-07T02:33:42.670Z,79.31
2023-11-07T02:34:15.386Z,79.70
2023-11-07T02:34:47.908Z,78.54
2023-11-07T02:35:20.450Z,77.55
2023-11-07T02:35:52.971Z,78.15
2023-11-07T02:36:25.545Z,78.79
2023-11-07T02:36:58.082Z,78.54
2023-11-07T02:37:30.574Z,77.77
2023-11-07T02:38:04.088Z,77.75
2023-11-07T02:38:36.807Z,77.13
2023-11-07T02:39:13.637Z,77.10
2023-11-07T02:39:46.178Z,76.71
2023-11-07T02:40:18.673Z,76.87
2023-11-07T02:40:52.089Z,77.95
2023-11-07T02:41:24.576Z,78.07
2023-11-07T02:41:57.063Z,78.09
2023-11-07T02:42:30.092Z,78.58
2023-11-07T02:43:02.856Z,79.15
2023-11-07T02:43:35.345Z,80.06
2023-11-07T02:44:07.879Z,79.83
2023-11-07T02:44:40.409Z,79.88
2023-11-07T02:45:13.292Z,81.08
2023-11-07T02:45:45.848Z,80.64
2023-11-07T02:46:18.511Z,80.31
2023-11-07T02:46:52.991Z,79.62
2023-11-07T02:47:26.569Z,79.24
2023-11-07T02:47:59.288Z,79.07
2023-11-07T02:48:32.018Z,79.11
2023-11-07T02:49:06.587Z,80.16
2023-11-07T02:49:39.459Z,80.72
2023-11-07T02:50:12.244Z,80.54
2023-11-07T02:50:45.982Z,81.28
2023-11-07T02:51:19.075Z,81.90
2023-11-07T02:51:51.608Z,81.43
2023-11-07T02:52:24.087Z,80.42
2023-11-07T02:52:56.575Z,79.17
2023-11-07T02:53:29.392Z,78.89
2023-11-07T02:54:02.327Z,78.37
2023-11-07T02:54:34.917Z,78.34
2023-11-07T02:55:08.736Z,78.75
2023-11-07T02:55:41.515Z,78.47
2023-11-07T02:56:14.520Z,79.11
2023-11-07T02:56:47.093Z,78.31
2023-11-07T02:57:19.600Z,78.49
2023-11-07T02:57:52.120Z,79.61
2023-11-07T02:58:25.289Z,78.47
2023-11-07T02:59:00.180Z,77.67
2023-11-07T02:59:32.989Z,78.91
2023-11-07T03:00:06.279Z,79.50
2023-11-07T03:00:39.302Z,80.18
2023-11-07T03:01:17.168Z,81.82
2023-11-07T03:01:52.541Z,80.93
2023-11-07T03:02:25.825Z,79.04
2023-11-07T03:02:59.633Z,77.89
2023-11-07T03:03:33.452Z,77.48
2023-11-07T03:04:06.123Z,77.94
2023-11-07T03:04:39.642Z,78.18
2023-11-07T03:05:12.344Z,79.61
2023-11-07T03:05:45.118Z,80.75
2023-11-07T03:06:19.014Z,81.02
2023-11-07T03:06:51.684Z,82.01
2023-11-07T03:07:24.833Z,81.82
2023-11-07T03:07:58.614Z,79.46
2023-11-07T03:08:31.150Z,79.01
2023-11-07T03:09:03.844Z,78.25
2023-11-07T03:09:36.611Z,79.34
2023-11-07T03:10:09.614Z,80.33
2023-11-07T03:10:42.175Z,79.78
2023-11-07T03:11:14.655Z,80.58
2023-11-07T03:11:47.170Z,80.63
2023-11-07T03:12:20.282Z,80.61
2023-11-07T03:12:52.793Z,80.72
2023-11-07T03:13:25.319Z,79.64
2023-11-07T03:13:57.860Z,80.40
2023-11-07T03:14:30.624Z,80.86
2023-11-07T03:15:03.620Z,79.63
2023-11-07T03:15:36.354Z,80.22
2023-11-07T03:16:09.299Z,79.78
2023-11-07T03:16:42.301Z,79.33
2023-11-07T03:17:14.851Z,78.42
2023-11-07T03:17:48.302Z,77.71
2023-11-07T03:18:21.037Z,77.51
2023-11-07T03:18:53.718Z,78.99
2023-11-07T03:19:26.314Z,77.93
2023-11-07T03:19:58.848Z,77.63
2023-11-07T03:20:31.455Z,78.14
2023-11-07T03:21:08.349Z,78.73
2023-11-07T03:21:41.160Z,79.03
2023-11-07T03:22:13.806Z,77.71
2023-11-07T03:22:46.378Z,78.79
2023-11-07T03:23:19.112Z,79.23
2023-11-07T03:23:51.675Z,78.89
2023-11-07T03:24:24.250Z,79.31
2023-11-07T03:24:56.768Z,78.16
2023-11-07T03:25:29.916Z,78.00
2023-11-07T03:26:03.989Z,79.75
2023-11-07T03:26:36.738Z,78.62
2023-11-07T03:27:09.288Z,77.96
2023-11-07T03:27:41.846Z,77.70
2023-11-07T03:28:14.358Z,77.11
2023-11-07T03:28:47.325Z,77.54
2023-11-07T03:29:19.867Z,79.17
2023-11-07T03:29:52.433Z,77.85
2023-11-07T03:30:24.943Z,77.72
2023-11-07T03:30:57.447Z,77.50
2023-11-07T03:31:30.278Z,77.89
2023-11-07T03:32:02.835Z,77.38
2023-11-07T03:32:35.868Z,77.60
2023-11-07T03:33:08.655Z,78.15
2023-11-07T03:33:41.372Z,77.86
2023-11-07T03:34:13.944Z,78.52
2023-11-07T03:34:46.503Z,78.27
2023-11-07T03:35:19.139Z,78.02
2023-11-07T03:35:51.757Z,78.08
2023-11-07T03:36:24.295Z,78.32
2023-11-07T03:36:56.849Z,78.98
2023-11-07T03:37:29.375Z,79.27
2023-11-07T03:38:01.861Z,79.31
2023-11-07T03:38:34.400Z,80.29
2023-11-07T03:39:07.732Z,81.70
2023-11-07T03:39:40.239Z,82.63
2023-11-07T03:40:13.607Z,79.99
2023-11-07T03:40:46.096Z,80.42
2023-11-07T03:41:18.609Z,81.64
2023-11-07T03:41:51.135Z,81.49
2023-11-07T03:42:23.972Z,81.09
2023-11-07T03:42:56.577Z,79.54
2023-11-07T03:43:29.088Z,78.72
2023-11-07T03:44:01.601Z,78.50
2023-11-07T03:44:36.169Z,79.06
2023-11-07T03:45:08.989Z,79.26
2023-11-07T03:45:41.521Z,79.83
2023-11-07T03:46:14.018Z,80.24
2023-11-07T03:46:46.519Z,78.95
2023-11-07T03:47:19.223Z,80.94
2023-11-07T03:47:51.873Z,80.64
2023-11-07T03:48:24.571Z,79.57
2023-11-07T03:48:57.585Z,79.87
2023-11-07T03:49:30.151Z,80.54
2023-11-07T03:50:03.788Z,79.87
2023-11-07T03:50:36.902Z,79.60
2023-11-07T03:51:09.477Z,80.04
2023-11-07T03:51:42.033Z,80.36
2023-11-07T03:52:15.258Z,80.05
2023-11-07T03:52:48.157Z,79.64
2023-11-07T03:53:21.340Z,79.51
2023-11-07T03:53:55.122Z,80.75
2023-11-07T03:54:27.716Z,79.97
2023-11-07T03:55:00.236Z,79.83
2023-11-07T03:55:33.268Z,80.92
2023-11-07T03:56:06.571Z,79.50
2023-11-07T03:56:39.185Z,79.18
2023-11-07T03:57:11.772Z,79.27
2023-11-07T03:57:44.307Z,79.77
2023-11-07T03:58:16.801Z,79.38
2023-11-07T03:58:49.363Z,80.74
2023-11-07T03:59:21.840Z,80.07
2023-11-07T03:59:54.401Z,79.68
2023-11-07T04:00:26.918Z,78.84
2023-11-07T04:00:59.424Z,77.90
2023-11-07T04:01:36.648Z,77.84
2023-11-07T04:02:09.180Z,78.34
2023-11-07T04:02:41.746Z,78.01
2023-11-07T04:03:14.378Z,78.08
2023-11-07T04:03:47.497Z,77.96
2023-11-07T04:04:21.524Z,78.04
2023-11-07T04:04:54.473Z,78.13
2023-11-07T04:05:27.273Z,77.81
2023-11-07T04:05:59.893Z,77.81
2023-11-07T04:06:32.591Z,78.02
2023-11-07T04:07:05.689Z,78.11
2023-11-07T04:07:38.167Z,78.35
2023-11-07T04:08:10.694Z,78.53
2023-11-07T04:08:43.244Z,78.56
2023-11-07T04:09:15.737Z,78.93
2023-11-07T04:09:48.263Z,79.15
2023-11-07T04:10:20.978Z,79.76
2023-11-07T04:10:53.553Z,80.50
2023-11-07T04:11:26.700Z,79.48
2023-11-07T04:11:59.250Z,78.31
2023-11-07T04:12:33.473Z,78.10
2023-11-07T04:13:06.651Z,78.39
2023-11-07T04:13:39.159Z,78.63
2023-11-07T04:14:11.948Z,79.05
2023-11-07T04:14:46.496Z,79.50
2023-11-07T04:15:19.551Z,79.76
2023-11-07T04:15:52.035Z,79.99
2023-11-07T04:16:24.572Z,79.91
2023-11-07T04:16:59.186Z,79.91
2023-11-07T04:17:31.808Z,80.13
2023-11-07T04:18:04.878Z,81.12
2023-11-07T04:18:37.617Z,82.08
2023-11-07T04:19:10.382Z,82.06
2023-11-07T04:19:43.737Z,80.18
2023-11-07T04:20:17.666Z,79.73
2023-11-07T04:20:51.168Z,79.36
2023-11-07T04:21:23.683Z,79.51
2023-11-07T04:21:56.212Z,79.88
2023-11-07T04:22:29.435Z,81.58
2023-11-07T04:23:01.946Z,81.08
2023-11-07T04:23:34.909Z,79.84
2023-11-07T04:24:07.791Z,80.29
2023-11-07T04:24:40.329Z,81.86
2023-11-07T04:25:12.848Z,80.79
2023-11-07T04:25:45.353Z,80.13
2023-11-07T04:26:19.119Z,80.47
2023-11-07T04:26:51.677Z,79.88
2023-11-07T04:27:24.231Z,79.70
2023-11-07T04:27:58.054Z,79.69
2023-11-07T04:28:32.304Z,79.70
2023-11-07T04:29:05.546Z,79.80
2023-11-07T04:29:38.516Z,79.91
2023-11-07T04:30:11.966Z,80.77
2023-11-07T04:30:44.866Z,82.00
2023-11-07T04:31:17.981Z,83.23
2023-11-07T04:31:51.108Z,83.46
2023-11-07T04:32:23.615Z,83.34
2023-11-07T04:32:56.390Z,83.23
2023-11-07T04:33:29.056Z,83.11
2023-11-07T04:34:02.196Z,83.63
2023-11-07T04:34:35.735Z,83.50
2023-11-07T04:35:11.168Z,83.18
2023-11-07T04:35:43.765Z,82.69
2023-11-07T04:36:17.780Z,81.34
2023-11-07T04:36:53.204Z,81.54
2023-11-07T04:37:25.731Z,81.93
2023-11-07T04:37:58.562Z,82.53
2023-11-07T04:38:31.646Z,83.90
2023-11-07T04:39:04.312Z,85.02
2023-11-07T04:39:36.871Z,85.07
2023-11-07T04:40:10.196Z,84.21
2023-11-07T04:40:42.724Z,82.53
2023-11-07T04:41:15.255Z,82.07
2023-11-07T04:41:47.799Z,83.20
2023-11-07T04:42:20.331Z,85.52
2023-11-07T04:42:52.860Z,85.93
2023-11-07T04:43:27.223Z,84.96
2023-11-07T04:44:00.618Z,83.63
2023-11-07T04:44:33.100Z,84.70
2023-11-07T04:45:08.591Z,86.28
2023-11-07T04:45:41.177Z,86.18
2023-11-07T04:46:14.351Z,86.49
2023-11-07T04:46:48.484Z,86.50
2023-11-07T04:47:21.585Z,86.25
2023-11-07T04:47:54.970Z,86.61
2023-11-07T04:48:28.258Z,86.01
2023-11-07T04:49:01.936Z,84.35
2023-11-07T04:49:35.183Z,84.10
2023-11-07T04:50:09.386Z,83.90
2023-11-07T04:50:41.911Z,83.38
2023-11-07T04:51:18.236Z,84.09
2023-11-07T04:51:50.923Z,84.12
2023-11-07T04:52:23.865Z,84.62
2023-11-07T04:52:56.420Z,83.89
2023-11-07T04:53:29.427Z,82.69
2023-11-07T04:54:02.691Z,83.07
2023-11-07T04:54:35.239Z,84.88
2023-11-07T04:55:08.193Z,83.84
2023-11-07T04:55:40.718Z,83.20
2023-11-07T04:56:13.212Z,82.94
2023-11-07T04:56:45.808Z,83.71
2023-11-07T04:57:18.398Z,83.96
2023-11-07T04:57:53.955Z,83.57
2023-11-07T04:58:28.176Z,82.41
2023-11-07T04:59:00.688Z,82.22
2023-11-07T04:59:34.184Z,81.78
2023-11-07T05:00:09.499Z,81.64
2023-11-07T05:00:42.087Z,81.28
2023-11-07T05:01:14.634Z,81.20
2023-11-07T05:01:49.463Z,81.30
2023-11-07T05:02:21.986Z,81.15
2023-11-07T05:02:54.716Z,81.12
2023-11-07T05:03:33.362Z,81.20
2023-11-07T05:04:11.448Z,81.49
2023-11-07T05:04:47.113Z,81.66
2023-11-07T05:05:19.776Z,81.39
2023-11-07T05:05:52.436Z,81.43
2023-11-07T05:06:26.542Z,81.17
2023-11-07T05:07:00.746Z,81.48
2023-11-07T05:07:33.255Z,82.25
2023-11-07T05:08:06.190Z,81.93
2023-11-07T05:08:39.637Z,81.56
2023-11-07T05:09:13.835Z,81.80
2023-11-07T05:09:46.468Z,81.37
2023-11-07T05:10:19.223Z,81.20
2023-11-07T05:10:51.755Z,81.26
2023-11-07T05:11:24.335Z,82.28
2023-11-07T05:11:58.415Z,81.53
2023-11-07T05:12:33.931Z,81.34
2023-11-07T05:13:07.834Z,81.36
2023-11-07T05:13:40.348Z,81.45
2023-11-07T05:14:12.859Z,82.24
2023-11-07T05:14:45.383Z,81.17
2023-11-07T05:15:18.386Z,79.99
2023-11-07T05:15:51.336Z,80.36
2023-11-07T05:16:23.873Z,81.36
2023-11-07T05:16:56.423Z,81.25
2023-11-07T05:17:28.918Z,80.42
2023-11-07T05:18:01.577Z,80.62
2023-11-07T05:18:34.412Z,81.19
2023-11-07T05:19:11.082Z,82.16
2023-11-07T05:19:44.255Z,80.09
2023-11-07T05:20:16.793Z,79.25
2023-11-07T05:20:49.841Z,79.56
2023-11-07T05:21:22.795Z,79.69
2023-11-07T05:21:55.730Z,79.58
2023-11-07T05:22:28.211Z,79.46
2023-11-07T05:23:00.692Z,79.03
2023-11-07T05:23:33.192Z,78.80
2023-11-07T05:24:06.247Z,78.62
2023-11-07T05:24:38.824Z,78.79
2023-11-07T05:25:11.315Z,78.88
2023-11-07T05:25:44.240Z,79.11
2023-11-07T05:26:16.769Z,78.89
2023-11-07T05:26:49.340Z,79.23
2023-11-07T05:27:21.858Z,80.17
2023-11-07T05:27:54.553Z,80.48
2023-11-07T05:28:27.103Z,80.06
2023-11-07T05:29:00.798Z,79.71
2023-11-07T05:29:33.358Z,80.53
2023-11-07T05:30:06.408Z,80.00
2023-11-07T05:30:39.449Z,79.57
2023-11-07T05:31:12.655Z,79.41
2023-11-07T05:31:48.024Z,79.40
2023-11-07T05:32:20.629Z,80.04
2023-11-07T05:32:53.246Z,79.95
2023-11-07T05:33:25.943Z,80.14
2023-11-07T05:33:58.672Z,79.18
2023-11-07T05:34:31.448Z,78.96
2023-11-07T05:35:06.246Z,79.12
2023-11-07T05:35:38.730Z,79.22
2023-11-07T05:36:11.383Z,79.28
2023-11-07T05:36:43.923Z,79.31
2023-11-07T05:37:17.867Z,79.33
2023-11-07T05:37:50.948Z,79.29
2023-11-07T05:38:23.568Z,79.21
2023-11-07T05:38:57.124Z,79.52
2023-11-07T05:39:29.774Z,79.85
2023-11-07T05:40:02.727Z,79.94
2023-11-07T05:40:35.226Z,80.08
2023-11-07T05:41:07.758Z,80.20
2023-11-07T05:41:40.297Z,80.14
2023-11-07T05:42:12.914Z,80.27
2023-11-07T05:42:45.526Z,80.20
2023-11-07T05:43:19.787Z,79.92
2023-11-07T05:43:53.580Z,80.00
2023-11-07T05:44:26.100Z,80.55
2023-11-07T05:45:00.595Z,80.75
2023-11-07T05:45:33.746Z,82.41
2023-11-07T05:46:07.065Z,82.22
2023-11-07T05:46:39.589Z,80.68
2023-11-07T05:47:12.148Z,80.44
2023-11-07T05:47:45.592Z,80.21
2023-11-07T05:48:18.555Z,80.04
2023-11-07T05:48:54.026Z,79.94
2023-11-07T05:49:26.644Z,79.98
2023-11-07T05:49:59.639Z,80.07
2023-11-07T05:50:32.250Z,80.54
2023-11-07T05:51:04.977Z,82.09
2023-11-07T05:51:39.352Z,81.15
2023-11-07T05:52:11.846Z,81.89
2023-11-07T05:52:45.493Z,82.66
2023-11-07T05:53:19.235Z,81.31
2023-11-07T05:53:51.811Z,80.84
2023-11-07T05:54:24.505Z,81.09
2023-11-07T05:54:57.015Z,81.83
2023-11-07T05:55:29.540Z,81.81
2023-11-07T05:56:02.866Z,82.62
2023-11-07T05:56:35.418Z,81.24
2023-11-07T05:57:07.983Z,81.85
2023-11-07T05:57:40.631Z,82.18
2023-11-07T05:58:13.175Z,81.30
2023-11-07T05:58:48.881Z,81.88
2023-11-07T05:59:22.160Z,82.85
2023-11-07T05:59:54.680Z,82.92
2023-11-07T06:00:27.442Z,80.95
2023-11-07T06:01:00.029Z,81.30
2023-11-07T06:01:32.521Z,82.06
2023-11-07T06:02:05.291Z,81.15
2023-11-07T06:02:38.566Z,81.19
2023-11-07T06:03:14.710Z,82.05
2023-11-07T06:03:47.503Z,81.44
2023-11-07T06:04:37.456Z,81.32
2023-11-07T06:05:10.480Z,81.96
2023-11-07T06:05:45.573Z,81.54
2023-11-07T06:06:18.536Z,81.17
2023-11-07T06:06:52.729Z,80.76
2023-11-07T06:07:25.563Z,80.48
2023-11-07T06:07:59.076Z,80.74
2023-11-07T06:08:31.692Z,81.11
2023-11-07T06:09:04.773Z,81.36
2023-11-07T06:09:37.406Z,80.42
2023-11-07T06:10:10.079Z,79.78
2023-11-07T06:10:42.584Z,79.75
2023-11-07T06:11:16.855Z,80.88
2023-11-07T06:11:49.375Z,80.46
2023-11-07T06:12:21.880Z,79.35
2023-11-07T06:12:54.403Z,78.78
2023-11-07T06:13:26.897Z,78.76
2023-11-07T06:13:59.701Z,78.88
2023-11-07T06:14:32.545Z,79.13
2023-11-07T06:15:05.460Z,79.07
2023-11-07T06:15:39.108Z,79.21
2023-11-07T06:16:11.655Z,79.47
2023-11-07T06:16:44.176Z,80.21
2023-11-07T06:17:18.824Z,80.54
2023-11-07T06:17:51.677Z,79.91
2023-11-07T06:18:25.727Z,79.57
2023-11-07T06:18:58.669Z,79.60
2023-11-07T06:19:31.289Z,79.60
2023-11-07T06:20:04.557Z,79.30
2023-11-07T06:20:37.091Z,79.66
2023-11-07T06:21:11.806Z,79.89
2023-11-07T06:21:44.330Z,79.57
2023-11-07T06:22:17.273Z,79.66
2023-11-07T06:22:49.943Z,79.80
2023-11-07T06:23:24.175Z,80.33
2023-11-07T06:23:56.711Z,80.12
2023-11-07T06:24:29.227Z,80.24
2023-11-07T06:25:02.676Z,79.75
2023-11-07T06:25:35.768Z,79.91
2023-11-07T06:26:08.481Z,80.40
2023-11-07T06:26:41.001Z,80.75
2023-11-07T06:27:13.536Z,80.51
2023-11-07T06:27:46.340Z,80.26
2023-11-07T06:28:18.835Z,81.11
2023-11-07T06:28:51.351Z,81.16
2023-11-07T06:29:23.877Z,80.26
2023-11-07T06:29:56.502Z,80.35
2023-11-07T06:30:31.516Z,81.27
2023-11-07T06:31:04.881Z,80.96
2023-11-07T06:31:37.406Z,81.44
2023-11-07T06:32:10.843Z,80.51
2023-11-07T06:32:43.511Z,79.65
2023-11-07T06:33:16.146Z,80.31
2023-11-07T06:33:48.748Z,79.86
2023-11-07T06:34:21.300Z,79.40
2023-11-07T06:34:54.218Z,79.35
2023-11-07T06:35:27.558Z,79.27
2023-11-07T06:36:00.352Z,78.78
2023-11-07T06:36:33.298Z,78.35
2023-11-07T06:37:05.869Z,78.38
2023-11-07T06:37:38.520Z,79.19
2023-11-07T06:38:11.501Z,79.58
2023-11-07T06:38:44.080Z,79.15
2023-11-07T06:39:19.697Z,79.21
2023-11-07T06:39:53.313Z,79.62
2023-11-07T06:40:25.820Z,79.29
2023-11-07T06:41:01.864Z,79.16
2023-11-07T06:41:35.463Z,79.27
2023-11-07T06:42:08.990Z,79.10
2023-11-07T06:42:45.466Z,78.77
2023-11-07T06:43:18.331Z,78.28
2023-11-07T06:43:52.260Z,77.77
2023-11-07T06:44:27.465Z,77.49
2023-11-07T06:45:00.629Z,77.16
2023-11-07T06:45:33.250Z,77.31
2023-11-07T06:46:06.090Z,77.63
2023-11-07T06:46:42.847Z,77.43
2023-11-07T06:47:15.487Z,77.33
2023-11-07T06:47:48.627Z,76.74
2023-11-07T06:48:21.472Z,76.37
2023-11-07T06:48:56.922Z,76.35
2023-11-07T06:49:32.218Z,76.38
2023-11-07T06:50:05.077Z,77.13
2023-11-07T06:50:37.664Z,76.10
2023-11-07T06:51:13.612Z,75.79
2023-11-07T06:51:46.203Z,75.83
2023-11-07T06:52:18.797Z,75.88
2023-11-07T06:52:53.234Z,76.16
2023-11-07T06:53:25.833Z,75.89
2023-11-07T06:54:01.157Z,76.02
2023-11-07T06:54:34.266Z,76.49
2023-11-07T06:55:07.520Z,76.39
2023-11-07T06:55:41.306Z,76.41
2023-11-07T06:56:16.537Z,76.09
2023-11-07T06:56:52.276Z,76.70
2023-11-07T06:57:25.098Z,77.12
2023-11-07T06:57:57.748Z,76.81
2023-11-07T06:58:30.466Z,77.22
2023-11-07T06:59:03.010Z,76.89
2023-11-07T06:59:35.528Z,76.57
2023-11-07T07:00:10.193Z,76.46
2023-11-07T07:00:43.850Z,76.51
2023-11-07T07:01:16.490Z,76.21
2023-11-07T07:01:49.027Z,76.43
2023-11-07T07:02:22.078Z,76.53
2023-11-07T07:02:58.701Z,76.45
2023-11-07T07:03:31.763Z,76.67
2023-11-07T07:04:04.585Z,76.11
2023-11-07T07:04:37.184Z,76.13
2023-11-07T07:05:14.732Z,75.74
2023-11-07T07:05:47.796Z,75.72
2023-11-07T07:06:22.341Z,76.14
2023-11-07T07:06:58.250Z,76.64
2023-11-07T07:07:31.569Z,76.42